sensor_id;sensor_type;location;lat;lon;timestamp;temperature;humidity
27900;DHT22;15243;50.726;7.080;2022-12-18T00:01:31;-6.20;99.90
27900;DHT22;15243;50.726;7.080;2022-12-18T00:04:02;-6.30;99.90
27900;DHT22;15243;50.726;7.080;2022-12-18T00:06:32;-6.30;99.90
27900;DHT22;15243;50.726;7.080;2022-12-18T00:09:02;-6.20;99.90
27900;DHT22;15243;50.726;7.080;2022-12-18T00:11:30;-6.30;99.90
27900;DHT22;15243;50.726;7.080;2022-12-18T00:13:58;-6.40;99.90
27900;DHT22;15243;50.726;7.080;2022-12-18T00:16:27;-6.40;99.90
27900;DHT22;15243;50.726;7.080;2022-12-18T00:18:55;-6.20;99.90
27900;DHT22;15243;50.726;7.080;2022-12-18T00:21:23;-6.30;99.90
27900;DHT22;15243;50.726;7.080;2022-12-18T00:23:50;-6.20;99.90
27900;DHT22;15243;50.726;7.080;2022-12-18T00:26:23;-6.20;99.90
27900;DHT22;15243;50.726;7.080;2022-12-18T00:28:51;-6.30;99.90
27900;DHT22;15243;50.726;7.080;2022-12-18T00:31:23;-6.30;99.90
27900;DHT22;15243;50.726;7.080;2022-12-18T00:33:50;-6.30;99.90
27900;DHT22;15243;50.726;7.080;2022-12-18T00:36:23;-6.40;99.90
27900;DHT22;15243;50.726;7.080;2022-12-18T00:38:52;-6.30;99.90
27900;DHT22;15243;50.726;7.080;2022-12-18T00:41:19;-6.40;99.90
27900;DHT22;15243;50.726;7.080;2022-12-18T00:44:06;-6.30;99.90
27900;DHT22;15243;50.726;7.080;2022-12-18T00:46:33;-6.10;99.90
27900;DHT22;15243;50.726;7.080;2022-12-18T00:49:00;-6.20;99.90
27900;DHT22;15243;50.726;7.080;2022-12-18T00:51:27;-6.30;99.90
27900;DHT22;15243;50.726;7.080;2022-12-18T00:53:54;-6.30;99.90
27900;DHT22;15243;50.726;7.080;2022-12-18T00:56:22;-6.30;99.90
27900;DHT22;15243;50.726;7.080;2022-12-18T00:58:49;-6.30;99.90
27900;DHT22;15243;50.726;7.080;2022-12-18T01:01:16;-6.40;99.90
27900;DHT22;15243;50.726;7.080;2022-12-18T01:03:43;-6.40;99.90
27900;DHT22;15243;50.726;7.080;2022-12-18T01:06:13;-6.50;99.90
27900;DHT22;15243;50.726;7.080;2022-12-18T01:08:40;-6.50;99.90
27900;DHT22;15243;50.726;7.080;2022-12-18T01:11:13;-6.50;99.90
27900;DHT22;15243;50.726;7.080;2022-12-18T01:13:40;-6.50;99.90
27900;DHT22;15243;50.726;7.080;2022-12-18T01:16:10;-6.50;99.90
27900;DHT22;15243;50.726;7.080;2022-12-18T01:18:37;-6.50;99.90
27900;DHT22;15243;50.726;7.080;2022-12-18T01:21:12;-6.50;99.90
27900;DHT22;15243;50.726;7.080;2022-12-18T01:23:40;-6.60;99.90
27900;DHT22;15243;50.726;7.080;2022-12-18T01:26:10;-6.50;99.90
27900;DHT22;15243;50.726;7.080;2022-12-18T01:28:38;-6.50;99.90
27900;DHT22;15243;50.726;7.080;2022-12-18T01:31:21;-6.50;99.90
27900;DHT22;15243;50.726;7.080;2022-12-18T01:33:49;-6.40;99.90
27900;DHT22;15243;50.726;7.080;2022-12-18T01:36:26;-6.50;99.90
27900;DHT22;15243;50.726;7.080;2022-12-18T01:38:55;-6.50;99.90
27900;DHT22;15243;50.726;7.080;2022-12-18T01:41:25;-6.50;99.90
27900;DHT22;15243;50.726;7.080;2022-12-18T01:43:53;-6.40;99.90
27900;DHT22;15243;50.726;7.080;2022-12-18T01:46:26;-6.40;99.90
27900;DHT22;15243;50.726;7.080;2022-12-18T01:48:59;-6.40;99.90
27900;DHT22;15243;50.726;7.080;2022-12-18T01:51:30;-6.30;99.90
27900;DHT22;15243;50.726;7.080;2022-12-18T01:53:57;-6.40;99.90
27900;DHT22;15243;50.726;7.080;2022-12-18T01:56:25;-6.40;99.90
27900;DHT22;15243;50.726;7.080;2022-12-18T01:59:00;-6.40;99.90
27900;DHT22;15243;50.726;7.080;2022-12-18T02:01:30;-6.50;99.90
27900;DHT22;15243;50.726;7.080;2022-12-18T02:04:24;-6.50;99.90
27900;DHT22;15243;50.726;7.080;2022-12-18T02:07:37;-6.50;99.90
27900;DHT22;15243;50.726;7.080;2022-12-18T02:10:20;-6.50;99.90
27900;DHT22;15243;50.726;7.080;2022-12-18T02:13:19;-6.40;99.90
27900;DHT22;15243;50.726;7.080;2022-12-18T02:18:46;-6.40;99.90
27900;DHT22;15243;50.726;7.080;2022-12-18T02:21:40;-6.40;99.90
27900;DHT22;15243;50.726;7.080;2022-12-18T02:24:28;-6.40;99.90
27900;DHT22;15243;50.726;7.080;2022-12-18T02:26:59;-6.50;99.90
27900;DHT22;15243;50.726;7.080;2022-12-18T02:29:33;-6.30;99.90
27900;DHT22;15243;50.726;7.080;2022-12-18T02:32:02;-6.30;99.90
27900;DHT22;15243;50.726;7.080;2022-12-18T02:34:33;-6.30;99.90
27900;DHT22;15243;50.726;7.080;2022-12-18T02:37:04;-6.30;99.90
27900;DHT22;15243;50.726;7.080;2022-12-18T02:39:34;-6.40;99.90
27900;DHT22;15243;50.726;7.080;2022-12-18T02:42:02;-6.40;99.90
27900;DHT22;15243;50.726;7.080;2022-12-18T02:44:44;-6.40;99.90
27900;DHT22;15243;50.726;7.080;2022-12-18T02:47:12;-6.40;99.90
27900;DHT22;15243;50.726;7.080;2022-12-18T02:55:47;-6.30;99.90
27900;DHT22;15243;50.726;7.080;2022-12-18T03:01:21;-6.20;99.90
27900;DHT22;15243;50.726;7.080;2022-12-18T03:03:58;-6.30;99.90
27900;DHT22;15243;50.726;7.080;2022-12-18T03:06:39;-6.30;99.90
27900;DHT22;15243;50.726;7.080;2022-12-18T03:09:15;-6.40;99.90
27900;DHT22;15243;50.726;7.080;2022-12-18T03:11:47;-6.50;99.90
27900;DHT22;15243;50.726;7.080;2022-12-18T03:14:34;-6.40;99.90
27900;DHT22;15243;50.726;7.080;2022-12-18T03:17:05;-6.50;99.90
27900;DHT22;15243;50.726;7.080;2022-12-18T03:19:35;-6.50;99.90
27900;DHT22;15243;50.726;7.080;2022-12-18T03:22:03;-6.40;99.90
27900;DHT22;15243;50.726;7.080;2022-12-18T03:24:31;-6.50;99.90
27900;DHT22;15243;50.726;7.080;2022-12-18T03:27:06;-6.60;99.90
27900;DHT22;15243;50.726;7.080;2022-12-18T03:29:49;-6.50;99.90
27900;DHT22;15243;50.726;7.080;2022-12-18T03:32:27;-6.50;99.90
27900;DHT22;15243;50.726;7.080;2022-12-18T03:34:58;-6.50;99.90
27900;DHT22;15243;50.726;7.080;2022-12-18T03:37:26;-6.60;99.90
27900;DHT22;15243;50.726;7.080;2022-12-18T03:39:52;-6.60;99.90
27900;DHT22;15243;50.726;7.080;2022-12-18T03:42:48;-6.60;99.90
27900;DHT22;15243;50.726;7.080;2022-12-18T03:48:08;-6.60;99.90
27900;DHT22;15243;50.726;7.080;2022-12-18T03:50:53;-6.60;99.90
27900;DHT22;15243;50.726;7.080;2022-12-18T03:56:10;-6.60;99.90
27900;DHT22;15243;50.726;7.080;2022-12-18T03:58:40;-6.70;99.90
27900;DHT22;15243;50.726;7.080;2022-12-18T04:01:10;-6.70;99.90
27900;DHT22;15243;50.726;7.080;2022-12-18T04:03:39;-6.80;99.90
27900;DHT22;15243;50.726;7.080;2022-12-18T04:06:08;-6.80;99.90
27900;DHT22;15243;50.726;7.080;2022-12-18T04:08:35;-6.70;99.90
27900;DHT22;15243;50.726;7.080;2022-12-18T04:11:02;-6.70;99.90
27900;DHT22;15243;50.726;7.080;2022-12-18T04:13:37;-6.70;99.90
27900;DHT22;15243;50.726;7.080;2022-12-18T04:16:05;-6.70;99.90
27900;DHT22;15243;50.726;7.080;2022-12-18T04:18:32;-6.70;99.90
27900;DHT22;15243;50.726;7.080;2022-12-18T04:20:59;-6.80;99.90
27900;DHT22;15243;50.726;7.080;2022-12-18T04:23:25;-6.80;99.90
27900;DHT22;15243;50.726;7.080;2022-12-18T04:25:52;-6.90;99.90
27900;DHT22;15243;50.726;7.080;2022-12-18T04:28:19;-6.80;99.90
27900;DHT22;15243;50.726;7.080;2022-12-18T04:30:50;-6.80;99.90
27900;DHT22;15243;50.726;7.080;2022-12-18T04:33:17;-6.80;99.90
27900;DHT22;15243;50.726;7.080;2022-12-18T04:35:45;-6.90;99.90
27900;DHT22;15243;50.726;7.080;2022-12-18T04:38:12;-6.90;99.90
27900;DHT22;15243;50.726;7.080;2022-12-18T04:40:39;-6.80;99.90
27900;DHT22;15243;50.726;7.080;2022-12-18T04:43:07;-6.80;99.90
27900;DHT22;15243;50.726;7.080;2022-12-18T04:45:34;-6.90;99.90
27900;DHT22;15243;50.726;7.080;2022-12-18T04:48:01;-6.80;99.90
27900;DHT22;15243;50.726;7.080;2022-12-18T04:50:29;-6.90;99.90
27900;DHT22;15243;50.726;7.080;2022-12-18T04:52:56;-6.80;99.90
27900;DHT22;15243;50.726;7.080;2022-12-18T04:55:26;-6.80;99.90
27900;DHT22;15243;50.726;7.080;2022-12-18T04:57:53;-6.90;99.90
27900;DHT22;15243;50.726;7.080;2022-12-18T05:00:20;-6.90;99.90
27900;DHT22;15243;50.726;7.080;2022-12-18T05:02:47;-6.90;99.90
27900;DHT22;15243;50.726;7.080;2022-12-18T05:05:14;-7.00;99.90
27900;DHT22;15243;50.726;7.080;2022-12-18T05:07:41;-7.00;99.90
27900;DHT22;15243;50.726;7.080;2022-12-18T05:10:08;-6.90;99.90
27900;DHT22;15243;50.726;7.080;2022-12-18T05:12:35;-6.90;99.90
27900;DHT22;15243;50.726;7.080;2022-12-18T05:15:22;-7.00;99.90
27900;DHT22;15243;50.726;7.080;2022-12-18T05:17:49;-6.90;99.90
27900;DHT22;15243;50.726;7.080;2022-12-18T05:20:16;-6.90;99.90
27900;DHT22;15243;50.726;7.080;2022-12-18T05:22:44;-6.90;99.90
27900;DHT22;15243;50.726;7.080;2022-12-18T05:25:11;-6.90;99.90
27900;DHT22;15243;50.726;7.080;2022-12-18T05:27:38;-6.80;99.90
27900;DHT22;15243;50.726;7.080;2022-12-18T05:30:05;-6.80;99.90
27900;DHT22;15243;50.726;7.080;2022-12-18T05:32:32;-6.70;99.90
27900;DHT22;15243;50.726;7.080;2022-12-18T05:34:59;-6.70;99.90
27900;DHT22;15243;50.726;7.080;2022-12-18T05:37:25;-6.70;99.90
27900;DHT22;15243;50.726;7.080;2022-12-18T05:39:52;-6.60;99.90
27900;DHT22;15243;50.726;7.080;2022-12-18T05:42:19;-6.70;99.90
27900;DHT22;15243;50.726;7.080;2022-12-18T05:44:46;-6.70;99.90
27900;DHT22;15243;50.726;7.080;2022-12-18T05:47:12;-6.70;99.90
27900;DHT22;15243;50.726;7.080;2022-12-18T05:49:39;-6.70;99.90
27900;DHT22;15243;50.726;7.080;2022-12-18T05:52:06;-6.70;99.90
27900;DHT22;15243;50.726;7.080;2022-12-18T05:54:33;-6.70;99.90
27900;DHT22;15243;50.726;7.080;2022-12-18T05:56:59;-6.70;99.90
27900;DHT22;15243;50.726;7.080;2022-12-18T05:59:26;-6.70;99.90
27900;DHT22;15243;50.726;7.080;2022-12-18T06:01:53;-6.70;99.90
27900;DHT22;15243;50.726;7.080;2022-12-18T06:04:20;-6.80;99.90
27900;DHT22;15243;50.726;7.080;2022-12-18T06:06:46;-6.80;99.90
27900;DHT22;15243;50.726;7.080;2022-12-18T06:09:13;-6.80;99.90
27900;DHT22;15243;50.726;7.080;2022-12-18T06:11:40;-6.80;99.90
27900;DHT22;15243;50.726;7.080;2022-12-18T06:14:08;-6.90;99.90
27900;DHT22;15243;50.726;7.080;2022-12-18T06:16:36;-6.90;99.90
27900;DHT22;15243;50.726;7.080;2022-12-18T06:19:04;-6.80;99.90
27900;DHT22;15243;50.726;7.080;2022-12-18T06:21:32;-6.80;99.90
27900;DHT22;15243;50.726;7.080;2022-12-18T06:23:59;-6.80;99.90
27900;DHT22;15243;50.726;7.080;2022-12-18T06:26:26;-6.80;99.90
27900;DHT22;15243;50.726;7.080;2022-12-18T06:28:54;-6.80;99.90
27900;DHT22;15243;50.726;7.080;2022-12-18T06:31:21;-6.70;99.90
27900;DHT22;15243;50.726;7.080;2022-12-18T06:33:48;-6.70;99.90
27900;DHT22;15243;50.726;7.080;2022-12-18T06:36:14;-6.60;99.90
27900;DHT22;15243;50.726;7.080;2022-12-18T06:38:43;-6.50;99.90
27900;DHT22;15243;50.726;7.080;2022-12-18T06:41:18;-6.50;99.90
27900;DHT22;15243;50.726;7.080;2022-12-18T06:43:45;-6.60;99.90
27900;DHT22;15243;50.726;7.080;2022-12-18T06:46:12;-6.50;99.90
27900;DHT22;15243;50.726;7.080;2022-12-18T06:48:39;-6.50;99.90
27900;DHT22;15243;50.726;7.080;2022-12-18T06:51:06;-6.40;99.90
27900;DHT22;15243;50.726;7.080;2022-12-18T06:53:33;-6.40;99.90
27900;DHT22;15243;50.726;7.080;2022-12-18T06:56:01;-6.40;99.90
27900;DHT22;15243;50.726;7.080;2022-12-18T06:58:35;-6.50;99.90
27900;DHT22;15243;50.726;7.080;2022-12-18T07:01:04;-6.50;99.90
27900;DHT22;15243;50.726;7.080;2022-12-18T07:03:32;-6.50;99.90
27900;DHT22;15243;50.726;7.080;2022-12-18T07:05:58;-6.40;99.90
27900;DHT22;15243;50.726;7.080;2022-12-18T07:08:25;-6.50;99.90
27900;DHT22;15243;50.726;7.080;2022-12-18T07:10:52;-6.30;99.90
27900;DHT22;15243;50.726;7.080;2022-12-18T07:13:22;-6.30;99.90
27900;DHT22;15243;50.726;7.080;2022-12-18T07:15:49;-6.30;99.90
27900;DHT22;15243;50.726;7.080;2022-12-18T07:18:16;-6.30;99.90
27900;DHT22;15243;50.726;7.080;2022-12-18T07:20:42;-6.30;99.90
27900;DHT22;15243;50.726;7.080;2022-12-18T07:23:11;-6.30;99.90
27900;DHT22;15243;50.726;7.080;2022-12-18T07:25:38;-6.20;99.90
27900;DHT22;15243;50.726;7.080;2022-12-18T07:28:05;-6.20;99.90
27900;DHT22;15243;50.726;7.080;2022-12-18T07:30:32;-6.20;99.90
27900;DHT22;15243;50.726;7.080;2022-12-18T07:32:59;-6.20;99.90
27900;DHT22;15243;50.726;7.080;2022-12-18T07:35:26;-6.10;99.90
27900;DHT22;15243;50.726;7.080;2022-12-18T07:37:53;-6.20;99.90
27900;DHT22;15243;50.726;7.080;2022-12-18T07:40:20;-6.20;99.90
27900;DHT22;15243;50.726;7.080;2022-12-18T07:42:47;-6.20;99.90
27900;DHT22;15243;50.726;7.080;2022-12-18T07:45:13;-6.20;99.90
27900;DHT22;15243;50.726;7.080;2022-12-18T07:47:40;-6.10;99.90
27900;DHT22;15243;50.726;7.080;2022-12-18T07:50:08;-6.10;99.90
27900;DHT22;15243;50.726;7.080;2022-12-18T07:52:34;-6.10;99.90
27900;DHT22;15243;50.726;7.080;2022-12-18T07:55:01;-6.00;99.90
27900;DHT22;15243;50.726;7.080;2022-12-18T07:57:28;-6.00;99.90
27900;DHT22;15243;50.726;7.080;2022-12-18T08:00:15;-5.90;99.90
27900;DHT22;15243;50.726;7.080;2022-12-18T08:02:42;-5.90;99.90
27900;DHT22;15243;50.726;7.080;2022-12-18T08:05:09;-5.90;99.90
27900;DHT22;15243;50.726;7.080;2022-12-18T08:07:36;-5.90;99.90
27900;DHT22;15243;50.726;7.080;2022-12-18T08:10:03;-5.70;99.90
27900;DHT22;15243;50.726;7.080;2022-12-18T08:12:31;-5.60;99.90
27900;DHT22;15243;50.726;7.080;2022-12-18T08:14:58;-5.60;99.90
27900;DHT22;15243;50.726;7.080;2022-12-18T08:17:25;-5.50;99.90
27900;DHT22;15243;50.726;7.080;2022-12-18T08:19:52;-5.50;99.90
27900;DHT22;15243;50.726;7.080;2022-12-18T08:22:18;-5.30;99.90
27900;DHT22;15243;50.726;7.080;2022-12-18T08:24:45;-5.20;99.90
27900;DHT22;15243;50.726;7.080;2022-12-18T08:27:12;-5.20;99.90
27900;DHT22;15243;50.726;7.080;2022-12-18T08:29:55;-5.10;99.90
27900;DHT22;15243;50.726;7.080;2022-12-18T08:32:21;-5.00;99.90
27900;DHT22;15243;50.726;7.080;2022-12-18T08:34:48;-5.00;99.90
27900;DHT22;15243;50.726;7.080;2022-12-18T08:37:15;-4.90;99.90
27900;DHT22;15243;50.726;7.080;2022-12-18T08:39:42;-4.90;99.90
27900;DHT22;15243;50.726;7.080;2022-12-18T08:42:09;-4.80;99.90
27900;DHT22;15243;50.726;7.080;2022-12-18T08:44:55;-4.70;99.90
27900;DHT22;15243;50.726;7.080;2022-12-18T08:47:22;-4.60;99.90
27900;DHT22;15243;50.726;7.080;2022-12-18T08:49:49;-4.60;99.90
27900;DHT22;15243;50.726;7.080;2022-12-18T08:52:15;-4.50;99.90
27900;DHT22;15243;50.726;7.080;2022-12-18T08:54:42;-4.40;99.90
27900;DHT22;15243;50.726;7.080;2022-12-18T08:57:09;-4.30;99.90
27900;DHT22;15243;50.726;7.080;2022-12-18T08:59:36;-4.10;99.90
27900;DHT22;15243;50.726;7.080;2022-12-18T09:02:02;-4.00;99.90
27900;DHT22;15243;50.726;7.080;2022-12-18T09:04:30;-4.00;99.90
27900;DHT22;15243;50.726;7.080;2022-12-18T09:06:56;-4.00;99.90
27900;DHT22;15243;50.726;7.080;2022-12-18T09:09:23;-3.90;99.90
27900;DHT22;15243;50.726;7.080;2022-12-18T09:11:50;-3.80;99.90
27900;DHT22;15243;50.726;7.080;2022-12-18T09:14:17;-3.80;99.90
27900;DHT22;15243;50.726;7.080;2022-12-18T09:16:43;-3.80;99.90
27900;DHT22;15243;50.726;7.080;2022-12-18T09:19:10;-3.70;99.90
27900;DHT22;15243;50.726;7.080;2022-12-18T09:21:37;-3.70;99.90
27900;DHT22;15243;50.726;7.080;2022-12-18T09:24:13;-3.50;99.90
27900;DHT22;15243;50.726;7.080;2022-12-18T09:26:40;-3.60;99.90
27900;DHT22;15243;50.726;7.080;2022-12-18T09:29:09;-3.60;99.90
27900;DHT22;15243;50.726;7.080;2022-12-18T09:31:36;-3.60;99.90
27900;DHT22;15243;50.726;7.080;2022-12-18T09:34:06;-3.40;99.90
27900;DHT22;15243;50.726;7.080;2022-12-18T09:36:33;-3.30;99.90
27900;DHT22;15243;50.726;7.080;2022-12-18T09:39:00;-3.30;99.90
27900;DHT22;15243;50.726;7.080;2022-12-18T09:46:51;-2.70;99.90
27900;DHT22;15243;50.726;7.080;2022-12-18T09:49:22;-2.90;99.90
27900;DHT22;15243;50.726;7.080;2022-12-18T09:52:09;-2.90;99.90
27900;DHT22;15243;50.726;7.080;2022-12-18T09:54:58;-2.80;99.90
27900;DHT22;15243;50.726;7.080;2022-12-18T09:57:29;-2.90;99.90
27900;DHT22;15243;50.726;7.080;2022-12-18T10:00:20;-2.90;99.90
27900;DHT22;15243;50.726;7.080;2022-12-18T10:02:49;-2.90;99.90
27900;DHT22;15243;50.726;7.080;2022-12-18T10:05:43;-2.70;99.90
27900;DHT22;15243;50.726;7.080;2022-12-18T10:14:39;-2.70;99.90
27900;DHT22;15243;50.726;7.080;2022-12-18T10:25:22;-2.60;99.90
27900;DHT22;15243;50.726;7.080;2022-12-18T10:27:56;-2.60;99.90
27900;DHT22;15243;50.726;7.080;2022-12-18T10:30:25;-2.50;99.90
27900;DHT22;15243;50.726;7.080;2022-12-18T10:32:52;-2.50;99.90
27900;DHT22;15243;50.726;7.080;2022-12-18T10:35:24;-2.40;99.90
27900;DHT22;15243;50.726;7.080;2022-12-18T10:40:31;-2.30;99.90
27900;DHT22;15243;50.726;7.080;2022-12-18T10:43:14;-2.30;99.90
27900;DHT22;15243;50.726;7.080;2022-12-18T10:45:42;-2.10;99.90
27900;DHT22;15243;50.726;7.080;2022-12-18T10:48:22;-2.00;99.90
27900;DHT22;15243;50.726;7.080;2022-12-18T10:50:51;-2.30;99.90
27900;DHT22;15243;50.726;7.080;2022-12-18T10:53:41;-2.30;99.90
27900;DHT22;15243;50.726;7.080;2022-12-18T10:56:09;-2.10;99.90
27900;DHT22;15243;50.726;7.080;2022-12-18T10:58:37;-2.20;99.90
27900;DHT22;15243;50.726;7.080;2022-12-18T11:01:13;-2.20;99.90
27900;DHT22;15243;50.726;7.080;2022-12-18T11:03:43;-2.20;99.90
27900;DHT22;15243;50.726;7.080;2022-12-18T11:06:15;-2.00;99.90
27900;DHT22;15243;50.726;7.080;2022-12-18T11:08:44;-2.00;99.90
27900;DHT22;15243;50.726;7.080;2022-12-18T11:11:23;-2.10;99.90
27900;DHT22;15243;50.726;7.080;2022-12-18T11:14:00;-2.10;99.90
27900;DHT22;15243;50.726;7.080;2022-12-18T11:16:30;-2.00;99.90
27900;DHT22;15243;50.726;7.080;2022-12-18T11:21:46;-2.00;99.90
27900;DHT22;15243;50.726;7.080;2022-12-18T11:24:30;-1.90;99.90
27900;DHT22;15243;50.726;7.080;2022-12-18T11:27:00;-2.00;99.90
27900;DHT22;15243;50.726;7.080;2022-12-18T11:29:36;-2.00;99.90
27900;DHT22;15243;50.726;7.080;2022-12-18T11:34:46;-1.90;99.90
27900;DHT22;15243;50.726;7.080;2022-12-18T11:37:14;-1.80;99.90
27900;DHT22;15243;50.726;7.080;2022-12-18T11:47:44;-1.90;99.90
27900;DHT22;15243;50.726;7.080;2022-12-18T11:53:18;-1.90;99.90
27900;DHT22;15243;50.726;7.080;2022-12-18T11:58:46;-1.70;99.90
27900;DHT22;15243;50.726;7.080;2022-12-18T12:01:39;-1.70;99.90
27900;DHT22;15243;50.726;7.080;2022-12-18T12:18:12;-1.90;99.90
27900;DHT22;15243;50.726;7.080;2022-12-18T12:26:08;-2.00;99.90
27900;DHT22;15243;50.726;7.080;2022-12-18T12:39:54;-2.00;99.90
27900;DHT22;15243;50.726;7.080;2022-12-18T12:42:47;-1.90;99.90
27900;DHT22;15243;50.726;7.080;2022-12-18T12:45:56;-1.90;99.90
27900;DHT22;15243;50.726;7.080;2022-12-18T12:48:47;-1.90;99.90
27900;DHT22;15243;50.726;7.080;2022-12-18T12:51:26;-1.80;99.90
27900;DHT22;15243;50.726;7.080;2022-12-18T12:53:56;-1.80;99.90
27900;DHT22;15243;50.726;7.080;2022-12-18T12:56:40;-1.90;99.90
27900;DHT22;15243;50.726;7.080;2022-12-18T12:59:19;-1.90;99.90
27900;DHT22;15243;50.726;7.080;2022-12-18T13:01:51;-1.80;99.90
27900;DHT22;15243;50.726;7.080;2022-12-18T13:04:45;-1.90;99.90
27900;DHT22;15243;50.726;7.080;2022-12-18T13:07:32;-1.80;99.90
27900;DHT22;15243;50.726;7.080;2022-12-18T13:13:27;-1.70;99.90
27900;DHT22;15243;50.726;7.080;2022-12-18T13:16:05;-1.60;99.90
27900;DHT22;15243;50.726;7.080;2022-12-18T13:18:33;-1.70;99.90
27900;DHT22;15243;50.726;7.080;2022-12-18T13:23:31;-1.70;99.90
27900;DHT22;15243;50.726;7.080;2022-12-18T13:26:00;-1.60;99.90
27900;DHT22;15243;50.726;7.080;2022-12-18T13:28:56;-1.60;99.90
27900;DHT22;15243;50.726;7.080;2022-12-18T13:36:54;-1.70;99.90
27900;DHT22;15243;50.726;7.080;2022-12-18T13:39:25;-1.70;99.90
27900;DHT22;15243;50.726;7.080;2022-12-18T13:44:39;-1.70;99.90
27900;DHT22;15243;50.726;7.080;2022-12-18T13:47:36;-1.60;99.90
27900;DHT22;15243;50.726;7.080;2022-12-18T13:50:26;-1.60;99.90
27900;DHT22;15243;50.726;7.080;2022-12-18T13:53:03;-1.70;99.90
27900;DHT22;15243;50.726;7.080;2022-12-18T13:55:32;-1.70;99.90
27900;DHT22;15243;50.726;7.080;2022-12-18T13:58:05;-1.70;99.90
27900;DHT22;15243;50.726;7.080;2022-12-18T14:00:33;-1.70;99.90
27900;DHT22;15243;50.726;7.080;2022-12-18T14:03:00;-1.80;99.90
27900;DHT22;15243;50.726;7.080;2022-12-18T14:05:34;-1.70;99.90
27900;DHT22;15243;50.726;7.080;2022-12-18T14:08:14;-1.90;99.90
27900;DHT22;15243;50.726;7.080;2022-12-18T14:10:46;-1.90;99.90
27900;DHT22;15243;50.726;7.080;2022-12-18T14:13:23;-1.90;99.90
27900;DHT22;15243;50.726;7.080;2022-12-18T14:15:51;-1.80;99.90
27900;DHT22;15243;50.726;7.080;2022-12-18T14:20:54;-1.90;99.90
27900;DHT22;15243;50.726;7.080;2022-12-18T14:23:37;-1.90;99.90
27900;DHT22;15243;50.726;7.080;2022-12-18T14:28:48;-1.90;99.90
27900;DHT22;15243;50.726;7.080;2022-12-18T14:31:23;-1.90;99.90
27900;DHT22;15243;50.726;7.080;2022-12-18T14:33:51;-2.00;99.90
27900;DHT22;15243;50.726;7.080;2022-12-18T14:36:28;-2.00;99.90
27900;DHT22;15243;50.726;7.080;2022-12-18T14:38:57;-1.90;99.90
27900;DHT22;15243;50.726;7.080;2022-12-18T14:41:25;-1.90;99.90
27900;DHT22;15243;50.726;7.080;2022-12-18T14:43:54;-2.00;99.90
27900;DHT22;15243;50.726;7.080;2022-12-18T14:46:44;-2.00;99.90
27900;DHT22;15243;50.726;7.080;2022-12-18T14:52:02;-2.10;99.90
27900;DHT22;15243;50.726;7.080;2022-12-18T14:54:30;-2.20;99.90
27900;DHT22;15243;50.726;7.080;2022-12-18T14:57:05;-2.20;99.90
27900;DHT22;15243;50.726;7.080;2022-12-18T14:59:32;-2.10;99.90
27900;DHT22;15243;50.726;7.080;2022-12-18T15:05:00;-2.10;99.90
27900;DHT22;15243;50.726;7.080;2022-12-18T15:07:38;-2.20;99.90
27900;DHT22;15243;50.726;7.080;2022-12-18T15:12:48;-2.20;99.90
27900;DHT22;15243;50.726;7.080;2022-12-18T15:20:50;-2.20;99.90
27900;DHT22;15243;50.726;7.080;2022-12-18T15:23:22;-2.30;99.90
27900;DHT22;15243;50.726;7.080;2022-12-18T15:26:10;-2.20;99.90
27900;DHT22;15243;50.726;7.080;2022-12-18T15:28:44;-2.30;99.90
27900;DHT22;15243;50.726;7.080;2022-12-18T15:33:43;-2.20;99.90
27900;DHT22;15243;50.726;7.080;2022-12-18T15:36:16;-2.20;99.90
27900;DHT22;15243;50.726;7.080;2022-12-18T15:38:53;-2.30;99.90
27900;DHT22;15243;50.726;7.080;2022-12-18T15:41:23;-2.30;99.90
27900;DHT22;15243;50.726;7.080;2022-12-18T15:43:52;-2.20;99.90
27900;DHT22;15243;50.726;7.080;2022-12-18T15:46:24;-2.30;99.90
27900;DHT22;15243;50.726;7.080;2022-12-18T15:48:53;-2.20;99.90
27900;DHT22;15243;50.726;7.080;2022-12-18T15:51:31;-2.30;99.90
27900;DHT22;15243;50.726;7.080;2022-12-18T15:54:00;-2.30;99.90
27900;DHT22;15243;50.726;7.080;2022-12-18T15:56:28;-2.30;99.90
27900;DHT22;15243;50.726;7.080;2022-12-18T15:59:18;-2.30;99.90
27900;DHT22;15243;50.726;7.080;2022-12-18T16:01:48;-2.30;99.90
27900;DHT22;15243;50.726;7.080;2022-12-18T16:04:18;-2.30;99.90
27900;DHT22;15243;50.726;7.080;2022-12-18T16:06:47;-2.30;99.90
27900;DHT22;15243;50.726;7.080;2022-12-18T16:09:35;-2.20;99.90
27900;DHT22;15243;50.726;7.080;2022-12-18T16:12:02;-2.20;99.90
27900;DHT22;15243;50.726;7.080;2022-12-18T16:14:29;-2.20;99.90
27900;DHT22;15243;50.726;7.080;2022-12-18T16:17:02;-2.20;99.90
27900;DHT22;15243;50.726;7.080;2022-12-18T16:19:30;-2.30;99.90
27900;DHT22;15243;50.726;7.080;2022-12-18T16:21:57;-2.30;99.90
27900;DHT22;15243;50.726;7.080;2022-12-18T16:24:26;-2.30;99.90
27900;DHT22;15243;50.726;7.080;2022-12-18T16:26:55;-2.30;99.90
27900;DHT22;15243;50.726;7.080;2022-12-18T16:29:26;-2.30;99.90
27900;DHT22;15243;50.726;7.080;2022-12-18T16:31:58;-2.30;99.90
27900;DHT22;15243;50.726;7.080;2022-12-18T16:34:30;-2.40;99.90
27900;DHT22;15243;50.726;7.080;2022-12-18T16:37:04;-2.30;99.90
27900;DHT22;15243;50.726;7.080;2022-12-18T16:39:33;-2.40;99.90
27900;DHT22;15243;50.726;7.080;2022-12-18T16:42:13;-2.40;99.90
27900;DHT22;15243;50.726;7.080;2022-12-18T16:44:41;-2.40;99.90
27900;DHT22;15243;50.726;7.080;2022-12-18T16:47:08;-2.40;99.90
27900;DHT22;15243;50.726;7.080;2022-12-18T16:49:39;-2.40;99.90
27900;DHT22;15243;50.726;7.080;2022-12-18T16:52:06;-2.40;99.90
27900;DHT22;15243;50.726;7.080;2022-12-18T16:54:33;-2.50;99.90
27900;DHT22;15243;50.726;7.080;2022-12-18T16:57:02;-2.40;99.90
27900;DHT22;15243;50.726;7.080;2022-12-18T16:59:34;-2.40;99.90
27900;DHT22;15243;50.726;7.080;2022-12-18T17:02:05;-2.40;99.90
27900;DHT22;15243;50.726;7.080;2022-12-18T17:04:32;-2.50;99.90
27900;DHT22;15243;50.726;7.080;2022-12-18T17:06:59;-2.50;99.90
27900;DHT22;15243;50.726;7.080;2022-12-18T17:09:26;-2.50;99.90
27900;DHT22;15243;50.726;7.080;2022-12-18T17:11:53;-2.50;99.90
27900;DHT22;15243;50.726;7.080;2022-12-18T17:14:22;-2.50;99.90
27900;DHT22;15243;50.726;7.080;2022-12-18T17:16:53;-2.50;99.90
27900;DHT22;15243;50.726;7.080;2022-12-18T17:19:40;-2.50;99.90
27900;DHT22;15243;50.726;7.080;2022-12-18T17:22:07;-2.30;99.90
27900;DHT22;15243;50.726;7.080;2022-12-18T17:24:34;-2.40;99.90
27900;DHT22;15243;50.726;7.080;2022-12-18T17:27:02;-2.50;99.90
27900;DHT22;15243;50.726;7.080;2022-12-18T17:29:30;-2.50;99.90
27900;DHT22;15243;50.726;7.080;2022-12-18T17:31:57;-2.50;99.90
27900;DHT22;15243;50.726;7.080;2022-12-18T17:34:26;-2.50;99.90
27900;DHT22;15243;50.726;7.080;2022-12-18T17:36:53;-2.40;99.90
27900;DHT22;15243;50.726;7.080;2022-12-18T17:39:20;-2.50;99.90
27900;DHT22;15243;50.726;7.080;2022-12-18T17:41:48;-2.50;99.90
27900;DHT22;15243;50.726;7.080;2022-12-18T17:44:15;-2.40;99.90
27900;DHT22;15243;50.726;7.080;2022-12-18T17:46:43;-2.50;99.90
27900;DHT22;15243;50.726;7.080;2022-12-18T17:49:10;-2.50;99.90
27900;DHT22;15243;50.726;7.080;2022-12-18T17:51:37;-2.50;99.90
27900;DHT22;15243;50.726;7.080;2022-12-18T17:54:04;-2.50;99.90
27900;DHT22;15243;50.726;7.080;2022-12-18T17:56:31;-2.50;99.90
27900;DHT22;15243;50.726;7.080;2022-12-18T17:58:58;-2.50;99.90
27900;DHT22;15243;50.726;7.080;2022-12-18T18:01:25;-2.50;99.90